Eurocargo Valencia — IBGZ — position and weather

sailwx.info

Track history (hours):
 
Tides and Currents Weather Stations Pressure Air Temp Water Temp Dewpoint Dewpoint Depression Visibility Wind Speed Wind Dir Waves Ship Positions

Eurocargo Valencia

Last reported at 2017-Apr-28 03:57 UTC. Time now 2017-Apr-28 21:58 UTC.
Position N 39°24' E 015°10'.

Length 196 m; draft 6.3 m.

Type: Cargo ship. MMSI: 247579000.

Date/timePositionNaut miles runAvg speedWind from/ knotsBaromVisibWave heightAir tempDewpointWater temp
2017-Apr-28 03:57N 39°24' E 015°10'816.5
2017-Apr-28 03:29N 39°17' E 015°13'816.6
2017-Apr-28 03:00N 39°10' E 015°17'1016.6
2017-Apr-28 02:25N 39°01' E 015°21'716.6
2017-Apr-28 02:00N 38°54' E 015°25'816.4
2017-Apr-28 01:30N 38°47' E 015°28'816.8
2017-Apr-28 01:00N 38°39' E 015°32'816.8
2017-Apr-28 00:30N 38°31' E 015°37'917.1
2017-Apr-28 00:01N 38°23' E 015°40'815.1
2017-Apr-27 23:31N 38°16' E 015°41'714.4
2017-Apr-27 23:01N 38°09' E 015°36'816.4
2017-Apr-27 22:31N 38°02' E 015°32'816.6
2017-Apr-27 22:01N 37°54' E 015°27'816.8
2017-Apr-27 21:30N 37°47' E 015°22'916.8
2017-Apr-27 20:59N 37°39' E 015°17'816.9
2017-Apr-27 20:30N 37°32' E 015°13'611.8
2017-Apr-27 20:00N 37°28' E 015°06'1 0.2
2017-Apr-27 14:32N 37°29' E 015°06'0 1.2
2017-Apr-27 14:27N 37°29' E 015°06'0 0.0
2017-Apr-27 09:31N 37°29' E 015°06'3 7.2
2017-Apr-27 09:04N 37°29' E 015°10'116.6
2017-Apr-27 08:59N 37°30' E 015°11'816.7
2017-Apr-27 08:30N 37°37' E 015°16'816.9
2017-Apr-27 08:00N 37°44' E 015°20'816.4
2017-Apr-27 07:30N 37°52' E 015°25'816.4
2017-Apr-27 07:01N 37°59' E 015°29'816.8
2017-Apr-27 06:31N 38°07' E 015°34'714.0
2017-Apr-27 06:00N 38°13' E 015°36'612.2
2017-Apr-27 05:30N 38°19' E 015°40'815.1
2017-Apr-27 05:00N 38°26' E 015°37'815.8
2017-Apr-27 04:31N 38°34' E 015°34'816.4
2017-Apr-27 04:01N 38°41' E 015°30'816.3
2017-Apr-27 03:31N 38°49' E 015°26'916.3
2017-Apr-27 02:59N 38°57' E 015°22'916.5
2017-Apr-27 02:26N 39°05' E 015°18'816.6
2017-Apr-27 01:55N 39°13' E 015°14'4 0.1
2017-Apr-25 05:27N 39°17' E 015°13'715.4
2017-Apr-25 04:59N 39°10' E 015°17'815.6
2017-Apr-25 04:30N 39°03' E 015°20'915.7
2017-Apr-25 03:56N 38°55' E 015°24'715.7
2017-Apr-25 03:30N 38°49' E 015°27'815.9
2017-Apr-25 03:01N 38°41' E 015°31'815.7
2017-Apr-25 02:31N 38°34' E 015°35'815.7
2017-Apr-25 02:00N 38°27' E 015°39'816.1
2017-Apr-25 01:31N 38°19' E 015°42'714.6
2017-Apr-25 01:01N 38°13' E 015°37'815.1
2017-Apr-25 00:30N 38°06' E 015°35'816.8
2017-Apr-25 00:00N 37°58' E 015°30'816.9
2017-Apr-24 23:31N 37°51' E 015°25'816.6
2017-Apr-24 23:01N 37°44' E 015°20'816.3
2017-Apr-24 22:29N 37°36' E 015°15'1015.8
2017-Apr-24 21:52N 37°28' E 015°09'3 8.0
2017-Apr-24 21:27N 37°29' E 015°06'0 0.0
2017-Apr-24 20:53N 37°29' E 015°06'0 0.0
2017-Apr-24 20:29N 37°29' E 015°06'0 0.0
2017-Apr-24 19:59N 37°29' E 015°06'0 0.0
2017-Apr-24 19:29N 37°29' E 015°06'0 0.0
2017-Apr-24 18:59N 37°29' E 015°06'7111.2
2017-Apr-24 12:38N 36°19' E 014°55'217.6
2017-Apr-24 12:30N 36°17' E 014°53'917.7
2017-Apr-24 12:00N 36°10' E 014°46'917.6
2017-Apr-24 11:30N 36°03' E 014°40'817.3
2017-Apr-24 11:00N 35°56' E 014°33'3 0.3
2017-Apr-24 01:21N 35°54' E 014°31'2 7.1
2017-Apr-24 01:00N 35°56' E 014°33'510.9
2017-Apr-24 00:30N 36°00' E 014°37'814.3
2017-Apr-23 23:59N 36°06' E 014°43'8012.8
2017-Apr-23 17:42N 37°23' E 015°13'7 0.6
2017-Apr-23 07:13N 37°29' E 015°11'415.5
2017-Apr-23 06:58N 37°32' E 015°13'715.7
2017-Apr-23 06:30N 37°39' E 015°17'815.6
2017-Apr-23 06:00N 37°46' E 015°21'815.9
2017-Apr-23 05:30N 37°53' E 015°26'816.0
2017-Apr-23 05:01N 38°00' E 015°30'816.8
2017-Apr-23 04:31N 38°08' E 015°35'815.7
2017-Apr-23 04:00N 38°15' E 015°39'612.9
2017-Apr-23 03:31N 38°22' E 015°39'816.1
2017-Apr-23 03:01N 38°29' E 015°36'816.4
2017-Apr-23 02:31N 38°37' E 015°32'816.1
2017-Apr-23 02:00N 38°44' E 015°28'815.8
2017-Apr-23 01:30N 38°52' E 015°25'816.4
2017-Apr-23 01:01N 38°59' E 015°21'14 0.7
2017-Apr-22 03:12N 39°13' E 015°15'516.2
2017-Apr-22 02:54N 39°08' E 015°17'616.4
2017-Apr-22 02:30N 39°02' E 015°20'816.2
2017-Apr-22 02:00N 38°55' E 015°24'816.2
2017-Apr-22 01:30N 38°47' E 015°28'816.2
2017-Apr-22 01:01N 38°40' E 015°32'816.3
2017-Apr-22 00:31N 38°32' E 015°36'816.4
2017-Apr-22 00:00N 38°25' E 015°40'816.3
2017-Apr-21 23:31N 38°17' E 015°43'816.3
2017-Apr-21 23:01N 38°11' E 015°37'815.2
2017-Apr-21 22:31N 38°03' E 015°33'917.1
2017-Apr-21 22:00N 37°56' E 015°28'816.9
2017-Apr-21 21:31N 37°48' E 015°23'816.8
2017-Apr-21 21:00N 37°41' E 015°18'1516.3
2017-Apr-21 20:04N 37°27' E 015°09'3 0.3
2017-Apr-21 09:50N 37°30' E 015°06'4 5.8
2017-Apr-21 09:08N 37°29' E 015°11'216.5
2017-Apr-21 09:00N 37°31' E 015°12'816.7
2017-Apr-21 08:31N 37°38' E 015°16'816.5
2017-Apr-21 08:00N 37°46' E 015°21'816.6
2017-Apr-21 07:30N 37°53' E 015°26'816.1
2017-Apr-21 07:01N 38°00' E 015°30'816.3
2017-Apr-21 06:30N 38°08' E 015°34'917.6
2017-Apr-21 06:00N 38°16' E 015°39'815.0
2017-Apr-21 05:30N 38°23' E 015°38'816.3
2017-Apr-21 05:00N 38°31' E 015°35'816.6
2017-Apr-21 04:30N 38°38' E 015°31'816.3
2017-Apr-21 04:00N 38°46' E 015°27'816.6
2017-Apr-21 03:30N 38°54' E 015°24'816.6
2017-Apr-21 03:00N 39°02' E 015°20'11 0.5
2017-Apr-20 03:52N 39°13' E 015°16'615.5
2017-Apr-20 03:30N 39°07' E 015°18'815.7
2017-Apr-20 02:58N 38°59' E 015°22'715.6
2017-Apr-20 02:30N 38°53' E 015°26'815.4
2017-Apr-20 02:00N 38°46' E 015°30'815.6
2017-Apr-20 01:30N 38°39' E 015°33'815.7
2017-Apr-20 01:00N 38°31' E 015°37'815.9
2017-Apr-20 00:30N 38°24' E 015°40'815.2
2017-Apr-20 00:01N 38°16' E 015°42'815.5
2017-Apr-19 23:30N 38°10' E 015°36'815.6
2017-Apr-19 23:00N 38°03' E 015°33'816.4
2017-Apr-19 22:30N 37°55' E 015°28'816.5
2017-Apr-19 22:00N 37°48' E 015°23'816.6
2017-Apr-19 21:30N 37°41' E 015°18'1613.8
2017-Apr-19 20:23N 37°29' E 015°06'1 0.1
2017-Apr-19 09:37N 37°29' E 015°06'0 1.3
2017-Apr-19 09:26N 37°29' E 015°06'4 9.9
2017-Apr-19 08:59N 37°30' E 015°11'817.6
2017-Apr-19 08:30N 37°37' E 015°16'917.3
2017-Apr-19 08:00N 37°45' E 015°21'917.4
2017-Apr-19 07:30N 37°53' E 015°25'917.5
2017-Apr-19 07:00N 38°01' E 015°30'918.4
2017-Apr-19 06:31N 38°09' E 015°35'816.7
2017-Apr-19 06:01N 38°16' E 015°40'714.9
2017-Apr-19 05:31N 38°24' E 015°38'917.8
2017-Apr-19 05:01N 38°32' E 015°34'918.1
2017-Apr-19 04:31N 38°40' E 015°30'917.6
2017-Apr-19 04:00N 38°49' E 015°26'917.4
2017-Apr-19 03:30N 38°57' E 015°23'1017.9
2017-Apr-19 02:57N 39°06' E 015°18'  
Track history (hours):
 
Tides and Currents Weather Stations Pressure Air Temp Water Temp Dewpoint Dewpoint Depression Visibility Wind Speed Wind Dir Waves Ship Positions

Eurocargo Valencia

Last reported at 2017-Apr-28 03:57 UTC. Time now 2017-Apr-28 21:58 UTC.
Position N 39°24' E 015°10'.

Length 196 m; draft 6.3 m.

Type: Cargo ship. MMSI: 247579000.

Date/timePositionNaut miles runAvg speedWind from/ knotsBaromVisibWave heightAir tempDewpointWater temp
2017-Apr-28 03:57N 39°24' E 015°10'816.5
2017-Apr-28 03:29N 39°17' E 015°13'816.6
2017-Apr-28 03:00N 39°10' E 015°17'1016.6
2017-Apr-28 02:25N 39°01' E 015°21'716.6
2017-Apr-28 02:00N 38°54' E 015°25'816.4
2017-Apr-28 01:30N 38°47' E 015°28'816.8
2017-Apr-28 01:00N 38°39' E 015°32'816.8
2017-Apr-28 00:30N 38°31' E 015°37'917.1
2017-Apr-28 00:01N 38°23' E 015°40'815.1
2017-Apr-27 23:31N 38°16' E 015°41'714.4
2017-Apr-27 23:01N 38°09' E 015°36'816.4
2017-Apr-27 22:31N 38°02' E 015°32'816.6
2017-Apr-27 22:01N 37°54' E 015°27'816.8
2017-Apr-27 21:30N 37°47' E 015°22'916.8
2017-Apr-27 20:59N 37°39' E 015°17'816.9
2017-Apr-27 20:30N 37°32' E 015°13'611.8
2017-Apr-27 20:00N 37°28' E 015°06'1 0.2
2017-Apr-27 14:32N 37°29' E 015°06'0 1.2
2017-Apr-27 14:27N 37°29' E 015°06'0 0.0
2017-Apr-27 09:31N 37°29' E 015°06'3 7.2
2017-Apr-27 09:04N 37°29' E 015°10'116.6
2017-Apr-27 08:59N 37°30' E 015°11'816.7
2017-Apr-27 08:30N 37°37' E 015°16'816.9
2017-Apr-27 08:00N 37°44' E 015°20'816.4
2017-Apr-27 07:30N 37°52' E 015°25'816.4
2017-Apr-27 07:01N 37°59' E 015°29'816.8
2017-Apr-27 06:31N 38°07' E 015°34'714.0
2017-Apr-27 06:00N 38°13' E 015°36'612.2
2017-Apr-27 05:30N 38°19' E 015°40'815.1
2017-Apr-27 05:00N 38°26' E 015°37'815.8
2017-Apr-27 04:31N 38°34' E 015°34'816.4
2017-Apr-27 04:01N 38°41' E 015°30'816.3
2017-Apr-27 03:31N 38°49' E 015°26'916.3
2017-Apr-27 02:59N 38°57' E 015°22'916.5
2017-Apr-27 02:26N 39°05' E 015°18'816.6
2017-Apr-27 01:55N 39°13' E 015°14'4 0.1
2017-Apr-25 05:27N 39°17' E 015°13'715.4
2017-Apr-25 04:59N 39°10' E 015°17'815.6
2017-Apr-25 04:30N 39°03' E 015°20'915.7
2017-Apr-25 03:56N 38°55' E 015°24'715.7
2017-Apr-25 03:30N 38°49' E 015°27'815.9
2017-Apr-25 03:01N 38°41' E 015°31'815.7
2017-Apr-25 02:31N 38°34' E 015°35'815.7
2017-Apr-25 02:00N 38°27' E 015°39'816.1
2017-Apr-25 01:31N 38°19' E 015°42'714.6
2017-Apr-25 01:01N 38°13' E 015°37'815.1
2017-Apr-25 00:30N 38°06' E 015°35'816.8
2017-Apr-25 00:00N 37°58' E 015°30'816.9
2017-Apr-24 23:31N 37°51' E 015°25'816.6
2017-Apr-24 23:01N 37°44' E 015°20'816.3
2017-Apr-24 22:29N 37°36' E 015°15'1015.8
2017-Apr-24 21:52N 37°28' E 015°09'3 8.0
2017-Apr-24 21:27N 37°29' E 015°06'0 0.0
2017-Apr-24 20:53N 37°29' E 015°06'0 0.0
2017-Apr-24 20:29N 37°29' E 015°06'0 0.0
2017-Apr-24 19:59N 37°29' E 015°06'0 0.0
2017-Apr-24 19:29N 37°29' E 015°06'0 0.0
2017-Apr-24 18:59N 37°29' E 015°06'7111.2
2017-Apr-24 12:38N 36°19' E 014°55'217.6
2017-Apr-24 12:30N 36°17' E 014°53'917.7
2017-Apr-24 12:00N 36°10' E 014°46'917.6
2017-Apr-24 11:30N 36°03' E 014°40'817.3
2017-Apr-24 11:00N 35°56' E 014°33'3 0.3
2017-Apr-24 01:21N 35°54' E 014°31'2 7.1
2017-Apr-24 01:00N 35°56' E 014°33'510.9
2017-Apr-24 00:30N 36°00' E 014°37'814.3
2017-Apr-23 23:59N 36°06' E 014°43'8012.8
2017-Apr-23 17:42N 37°23' E 015°13'7 0.6
2017-Apr-23 07:13N 37°29' E 015°11'415.5
2017-Apr-23 06:58N 37°32' E 015°13'715.7
2017-Apr-23 06:30N 37°39' E 015°17'815.6
2017-Apr-23 06:00N 37°46' E 015°21'815.9
2017-Apr-23 05:30N 37°53' E 015°26'816.0
2017-Apr-23 05:01N 38°00' E 015°30'816.8
2017-Apr-23 04:31N 38°08' E 015°35'815.7
2017-Apr-23 04:00N 38°15' E 015°39'612.9
2017-Apr-23 03:31N 38°22' E 015°39'816.1
2017-Apr-23 03:01N 38°29' E 015°36'816.4
2017-Apr-23 02:31N 38°37' E 015°32'816.1
2017-Apr-23 02:00N 38°44' E 015°28'815.8
2017-Apr-23 01:30N 38°52' E 015°25'816.4
2017-Apr-23 01:01N 38°59' E 015°21'14 0.7
2017-Apr-22 03:12N 39°13' E 015°15'516.2
2017-Apr-22 02:54N 39°08' E 015°17'616.4
2017-Apr-22 02:30N 39°02' E 015°20'816.2
2017-Apr-22 02:00N 38°55' E 015°24'816.2
2017-Apr-22 01:30N 38°47' E 015°28'816.2
2017-Apr-22 01:01N 38°40' E 015°32'816.3
2017-Apr-22 00:31N 38°32' E 015°36'816.4
2017-Apr-22 00:00N 38°25' E 015°40'816.3
2017-Apr-21 23:31N 38°17' E 015°43'816.3
2017-Apr-21 23:01N 38°11' E 015°37'815.2
2017-Apr-21 22:31N 38°03' E 015°33'917.1
2017-Apr-21 22:00N 37°56' E 015°28'816.9
2017-Apr-21 21:31N 37°48' E 015°23'816.8
2017-Apr-21 21:00N 37°41' E 015°18'1516.3
2017-Apr-21 20:04N 37°27' E 015°09'3 0.3
2017-Apr-21 09:50N 37°30' E 015°06'4 5.8
2017-Apr-21 09:08N 37°29' E 015°11'216.5
2017-Apr-21 09:00N 37°31' E 015°12'816.7
2017-Apr-21 08:31N 37°38' E 015°16'816.5
2017-Apr-21 08:00N 37°46' E 015°21'816.6
2017-Apr-21 07:30N 37°53' E 015°26'816.1
2017-Apr-21 07:01N 38°00' E 015°30'816.3
2017-Apr-21 06:30N 38°08' E 015°34'917.6
2017-Apr-21 06:00N 38°16' E 015°39'815.0
2017-Apr-21 05:30N 38°23' E 015°38'816.3
2017-Apr-21 05:00N 38°31' E 015°35'816.6
2017-Apr-21 04:30N 38°38' E 015°31'816.3
2017-Apr-21 04:00N 38°46' E 015°27'816.6
2017-Apr-21 03:30N 38°54' E 015°24'816.6
2017-Apr-21 03:00N 39°02' E 015°20'11 0.5
2017-Apr-20 03:52N 39°13' E 015°16'615.5
2017-Apr-20 03:30N 39°07' E 015°18'815.7
2017-Apr-20 02:58N 38°59' E 015°22'715.6
2017-Apr-20 02:30N 38°53' E 015°26'815.4
2017-Apr-20 02:00N 38°46' E 015°30'815.6
2017-Apr-20 01:30N 38°39' E 015°33'815.7
2017-Apr-20 01:00N 38°31' E 015°37'815.9
2017-Apr-20 00:30N 38°24' E 015°40'815.2
2017-Apr-20 00:01N 38°16' E 015°42'815.5
2017-Apr-19 23:30N 38°10' E 015°36'815.6
2017-Apr-19 23:00N 38°03' E 015°33'816.4
2017-Apr-19 22:30N 37°55' E 015°28'816.5
2017-Apr-19 22:00N 37°48' E 015°23'816.6
2017-Apr-19 21:30N 37°41' E 015°18'1613.8
2017-Apr-19 20:23N 37°29' E 015°06'1 0.1
2017-Apr-19 09:37N 37°29' E 015°06'0 1.3
2017-Apr-19 09:26N 37°29' E 015°06'4 9.9
2017-Apr-19 08:59N 37°30' E 015°11'817.6
2017-Apr-19 08:30N 37°37' E 015°16'917.3
2017-Apr-19 08:00N 37°45' E 015°21'917.4
2017-Apr-19 07:30N 37°53' E 015°25'917.5
2017-Apr-19 07:00N 38°01' E 015°30'918.4
2017-Apr-19 06:31N 38°09' E 015°35'816.7
2017-Apr-19 06:01N 38°16' E 015°40'714.9
2017-Apr-19 05:31N 38°24' E 015°38'917.8
2017-Apr-19 05:01N 38°32' E 015°34'918.1
2017-Apr-19 04:31N 38°40' E 015°30'917.6
2017-Apr-19 04:00N 38°49' E 015°26'917.4
2017-Apr-19 03:30N 38°57' E 015°23'1017.9
2017-Apr-19 02:57N 39°06' E 015°18'  

Dump ship's entire track history